Terminal Aerodrome Forecast
Issued by NWS

Home | Current Version | Previous Version | Graphics & Text | Print | Product List | Glossary On
Versions: 1 2 3 4 5 6 7 8 9 10 11 12 13 14 15 16 17 18 19 20 21 22 23
293
FTUS43 KTOP 240541
TAFFOE
TAF
KFOE 240541Z 2406/2506 33016G24KT P6SM BKN009
      TEMPO 2406/2410 SCT009 BKN035
     FM241000 31015G23KT P6SM SCT006 BKN009
     FM241900 30020G28KT P6SM VCSH BKN013
     FM250000 32015KT P6SM OVC025
     FM250200 32014G23KT P6SM OVC035=

USA.gov is the U.S. government's official web portal to all federal, state and local government web resources and services.